createdAt,value
2023-02-07T00:01:52.828Z,-3.28
2023-02-07T00:04:25.722Z,-3.31
2023-02-07T00:06:56.434Z,-3.33
2023-02-07T00:09:27.120Z,-3.36
2023-02-07T00:11:57.778Z,-3.36
2023-02-07T00:14:28.574Z,-3.37
2023-02-07T00:16:59.280Z,-3.39
2023-02-07T00:19:29.989Z,-3.38
2023-02-07T00:22:00.672Z,-3.39
2023-02-07T00:24:31.270Z,-3.40
2023-02-07T00:27:04.462Z,-3.40
2023-02-07T00:29:35.493Z,-3.40
2023-02-07T00:32:04.840Z,-3.43
2023-02-07T00:34:35.774Z,-3.48
2023-02-07T00:37:07.085Z,-3.51
2023-02-07T00:39:38.055Z,-3.54
2023-02-07T00:42:08.977Z,-3.57
2023-02-07T00:44:38.214Z,-3.57
2023-02-07T00:47:08.944Z,-3.57
2023-02-07T00:49:39.632Z,-3.53
2023-02-07T00:52:10.500Z,-3.55
2023-02-07T00:54:41.178Z,-3.61
2023-02-07T00:57:12.226Z,-3.65
2023-02-07T00:59:41.330Z,-3.70
2023-02-07T01:02:12.013Z,-3.73
2023-02-07T01:04:42.800Z,-3.72
2023-02-07T01:07:13.481Z,-3.71
2023-02-07T01:09:44.283Z,-3.68
2023-02-07T01:12:14.996Z,-3.66
2023-02-07T01:14:45.656Z,-3.69
2023-02-07T01:17:16.349Z,-3.75
2023-02-07T01:19:47.100Z,-3.79
2023-02-07T01:22:17.801Z,-3.79
2023-02-07T01:24:48.516Z,-3.84
2023-02-07T01:27:19.172Z,-3.87
2023-02-07T01:29:50.503Z,-3.86
2023-02-07T01:32:21.234Z,-3.85
2023-02-07T01:34:51.897Z,-3.84
2023-02-07T01:37:22.594Z,-3.83
2023-02-07T01:39:53.312Z,-3.85
2023-02-07T01:42:42.999Z,-3.91
2023-02-07T01:45:28.081Z,-3.95
2023-02-07T01:48:03.980Z,-3.98
2023-02-07T01:50:35.438Z,-3.99
2023-02-07T01:53:07.554Z,-4.10
2023-02-07T01:55:40.172Z,-4.10
2023-02-07T01:58:11.269Z,-4.09
2023-02-07T02:00:42.368Z,-4.03
2023-02-07T02:03:13.131Z,-3.98
2023-02-07T02:05:45.828Z,-3.92
2023-02-07T02:08:16.446Z,-3.89
2023-02-07T02:11:02.085Z,-3.87
2023-02-07T02:13:40.711Z,-3.88
2023-02-07T02:16:20.321Z,-3.90
2023-02-07T02:19:26.250Z,-3.93
2023-02-07T02:22:19.022Z,-3.99
2023-02-07T02:25:37.689Z,-4.02
2023-02-07T02:28:30.509Z,-4.03
2023-02-07T02:31:31.624Z,-4.05
2023-02-07T02:34:07.632Z,-4.06
2023-02-07T02:36:48.259Z,-4.06
2023-02-07T02:39:27.923Z,-4.05
2023-02-07T02:42:04.324Z,-4.01
2023-02-07T02:44:42.630Z,-3.98
2023-02-07T02:47:13.994Z,-4.02
2023-02-07T02:49:45.914Z,-4.08
2023-02-07T02:52:16.657Z,-4.09
2023-02-07T02:54:47.261Z,-4.05
2023-02-07T02:57:48.204Z,-4.05
2023-02-07T03:00:57.677Z,-4.08
2023-02-07T03:03:59.738Z,-4.12
2023-02-07T03:06:41.743Z,-4.13
2023-02-07T03:09:25.422Z,-4.14
2023-02-07T03:12:19.020Z,-4.19
2023-02-07T03:14:58.490Z,-4.24
2023-02-07T03:17:34.652Z,-4.28
2023-02-07T03:20:16.450Z,-4.26
2023-02-07T03:22:48.349Z,-4.25
2023-02-07T03:25:21.061Z,-4.25
2023-02-07T03:27:53.411Z,-4.26
2023-02-07T03:30:28.730Z,-4.25
2023-02-07T03:33:05.822Z,-4.26
2023-02-07T03:35:41.080Z,-4.31
2023-02-07T03:38:12.011Z,-4.33
2023-02-07T03:40:46.763Z,-4.35
2023-02-07T03:43:22.556Z,-4.31
2023-02-07T03:45:53.265Z,-4.26
2023-02-07T03:48:24.629Z,-4.20
2023-02-07T03:50:55.728Z,-4.19
2023-02-07T03:53:24.819Z,-4.24
2023-02-07T03:55:55.438Z,-4.27
2023-02-07T03:58:26.086Z,-4.28
2023-02-07T04:00:56.729Z,-4.29
2023-02-07T04:03:27.584Z,-4.29
2023-02-07T04:05:56.843Z,-4.34
2023-02-07T04:08:27.536Z,-4.42
2023-02-07T04:11:02.464Z,-4.49
2023-02-07T04:13:33.242Z,-4.49
2023-02-07T04:16:04.599Z,-4.51
2023-02-07T04:18:35.639Z,-4.51
2023-02-07T04:21:08.610Z,-4.49
2023-02-07T04:23:39.272Z,-4.47
2023-02-07T04:26:09.902Z,-4.49
2023-02-07T04:28:40.572Z,-4.48
2023-02-07T04:31:11.255Z,-4.47
2023-02-07T04:33:42.008Z,-4.45
2023-02-07T04:36:12.833Z,-4.44
2023-02-07T04:38:43.940Z,-4.40
2023-02-07T04:41:12.964Z,-4.39
2023-02-07T04:43:43.668Z,-4.45
2023-02-07T04:46:14.319Z,-4.52
2023-02-07T04:48:45.028Z,-4.58
2023-02-07T04:51:15.255Z,-4.64
2023-02-07T04:53:46.542Z,-4.67
2023-02-07T04:56:17.205Z,-4.66
2023-02-07T04:58:47.913Z,-4.68
2023-02-07T05:01:18.568Z,-4.72
2023-02-07T05:03:49.313Z,-4.71
2023-02-07T05:06:19.902Z,-4.70
2023-02-07T05:08:50.903Z,-4.68
2023-02-07T05:11:22.354Z,-4.65
2023-02-07T05:13:53.073Z,-4.64
2023-02-07T05:16:23.769Z,-4.62
2023-02-07T05:19:17.348Z,-4.65
2023-02-07T05:21:45.805Z,-4.64
2023-02-07T05:24:16.534Z,-4.65
2023-02-07T05:26:47.129Z,-4.66
2023-02-07T05:29:17.962Z,-4.68
2023-02-07T05:31:48.754Z,-4.69
2023-02-07T05:34:18.124Z,-4.70
2023-02-07T05:36:48.671Z,-4.70
2023-02-07T05:39:19.368Z,-4.70
2023-02-07T05:41:49.974Z,-4.74
2023-02-07T05:44:20.700Z,-4.77
2023-02-07T05:46:52.708Z,-4.80
2023-02-07T05:49:23.543Z,-4.82
2023-02-07T05:51:54.153Z,-4.84
2023-02-07T05:54:24.970Z,-4.83
2023-02-07T05:56:55.649Z,-4.79
2023-02-07T05:59:26.278Z,-4.73
2023-02-07T06:01:56.859Z,-4.71
2023-02-07T06:04:27.887Z,-4.70
2023-02-07T06:06:58.521Z,-4.70
2023-02-07T06:09:29.312Z,-4.71
2023-02-07T06:12:00.133Z,-4.69
2023-02-07T06:14:30.889Z,-4.69
2023-02-07T06:17:02.029Z,-4.69
2023-02-07T06:19:32.719Z,-4.72
2023-02-07T06:22:11.200Z,-4.72
2023-02-07T06:24:50.350Z,-4.70
2023-02-07T06:27:21.257Z,-4.68
2023-02-07T06:29:52.112Z,-4.69
2023-02-07T06:32:27.770Z,-4.70
2023-02-07T06:35:01.386Z,-4.67
2023-02-07T06:37:32.029Z,-4.61
2023-02-07T06:40:02.821Z,-4.57
2023-02-07T06:42:33.505Z,-4.52
2023-02-07T06:45:06.301Z,-4.45
2023-02-07T06:47:36.973Z,-4.37
2023-02-07T06:50:15.113Z,-4.28
2023-02-07T06:52:45.922Z,-4.18
2023-02-07T06:55:17.031Z,-4.09
2023-02-07T06:58:50.633Z,-4.07
2023-02-07T07:01:00.960Z,-4.01
2023-02-07T07:03:31.789Z,-3.96
2023-02-07T07:06:02.626Z,-3.90
2023-02-07T07:08:33.269Z,-3.87
2023-02-07T07:11:04.177Z,-3.84
2023-02-07T07:13:34.991Z,-3.77
2023-02-07T07:16:07.680Z,-3.81
2023-02-07T07:18:38.734Z,-3.85
2023-02-07T07:21:08.272Z,-3.87
2023-02-07T07:23:38.960Z,-3.95
2023-02-07T07:26:09.701Z,-3.94
2023-02-07T07:28:40.297Z,-3.95
2023-02-07T07:31:13.967Z,-3.93
2023-02-07T07:33:44.705Z,-3.87
2023-02-07T07:36:15.488Z,-3.81
2023-02-07T07:38:47.796Z,-3.68
2023-02-07T07:41:18.937Z,-3.64
2023-02-07T07:43:51.944Z,-3.58
2023-02-07T07:46:22.992Z,-3.54
2023-02-07T07:48:52.086Z,-3.50
2023-02-07T07:51:22.747Z,-3.43
2023-02-07T07:53:53.476Z,-3.32
2023-02-07T07:56:24.254Z,-3.19
2023-02-07T07:58:56.266Z,-3.06
2023-02-07T08:01:28.708Z,-2.91
2023-02-07T08:04:10.231Z,-2.76
2023-02-07T08:06:41.102Z,-2.63
2023-02-07T08:09:11.738Z,-2.46
2023-02-07T08:11:43.656Z,-2.32
2023-02-07T08:14:18.092Z,-2.15
2023-02-07T08:17:21.960Z,-2.02
2023-02-07T08:19:44.963Z,-1.93
2023-02-07T08:22:15.657Z,-1.84
2023-02-07T08:24:46.486Z,-1.68
2023-02-07T08:27:17.135Z,-1.54
2023-02-07T08:29:57.720Z,-1.41
2023-02-07T08:32:28.586Z,-1.28
2023-02-07T08:34:59.548Z,-1.18
2023-02-07T08:37:31.382Z,-1.01
2023-02-07T08:40:02.309Z,-0.85
2023-02-07T08:42:33.475Z,-0.68
2023-02-07T08:45:09.387Z,-0.55
2023-02-07T08:47:40.495Z,-0.42
2023-02-07T08:50:18.976Z,-0.36
2023-02-07T08:52:50.710Z,-0.26
2023-02-07T08:55:24.208Z,-0.16
2023-02-07T08:57:55.054Z,-0.11
2023-02-07T09:00:25.930Z,-0.04
2023-02-07T09:02:56.646Z,0.06
2023-02-07T09:05:27.338Z,0.20
2023-02-07T09:08:02.385Z,0.29
2023-02-07T09:10:37.015Z,0.37
2023-02-07T09:13:07.722Z,0.51
2023-02-07T09:15:38.501Z,0.61
2023-02-07T09:18:10.956Z,0.75
2023-02-07T09:20:43.846Z,0.89
2023-02-07T09:23:14.533Z,1.00
2023-02-07T09:25:45.973Z,1.03
2023-02-07T09:28:17.030Z,1.08
2023-02-07T09:30:54.249Z,1.11
2023-02-07T09:33:25.524Z,1.24
2023-02-07T09:36:02.088Z,1.34
2023-02-07T09:38:33.064Z,1.42
2023-02-07T09:41:03.741Z,1.48
2023-02-07T09:43:47.672Z,1.59
2023-02-07T09:46:23.790Z,1.63
2023-02-07T09:49:02.412Z,1.74
2023-02-07T09:51:35.865Z,1.89
2023-02-07T09:54:15.233Z,1.96
2023-02-07T09:56:47.189Z,2.11
2023-02-07T09:59:24.655Z,2.27
2023-02-07T10:02:01.394Z,2.42
2023-02-07T10:04:48.615Z,2.58
2023-02-07T10:07:50.309Z,2.70
2023-02-07T10:10:18.232Z,2.78
2023-02-07T10:13:08.492Z,2.69
2023-02-07T10:15:53.706Z,2.61
2023-02-07T10:18:44.617Z,2.63
2023-02-07T10:21:25.244Z,2.65
2023-02-07T10:24:27.784Z,2.71
2023-02-07T10:27:06.066Z,2.82
2023-02-07T10:29:50.609Z,2.92
2023-02-07T10:32:33.926Z,2.96
2023-02-07T10:35:14.978Z,3.06
2023-02-07T10:38:12.258Z,3.12
2023-02-07T10:40:50.251Z,3.08
2023-02-07T10:43:28.864Z,2.92
2023-02-07T10:46:06.127Z,2.93
2023-02-07T10:48:38.663Z,2.85
2023-02-07T10:51:25.064Z,2.82
2023-02-07T10:54:07.718Z,2.89
2023-02-07T10:56:43.303Z,2.90
2023-02-07T10:59:35.732Z,2.96
2023-02-07T11:02:45.755Z,3.03
2023-02-07T11:05:50.754Z,3.11
2023-02-07T11:08:42.389Z,3.19
2023-02-07T11:11:31.404Z,3.25
2023-02-07T11:14:06.784Z,3.30
2023-02-07T11:16:43.178Z,3.33
2023-02-07T11:19:19.056Z,3.39
2023-02-07T11:21:51.900Z,3.44
2023-02-07T11:24:28.317Z,3.50
2023-02-07T11:27:07.050Z,3.57
2023-02-07T11:29:44.690Z,3.63
2023-02-07T11:32:17.020Z,3.60
2023-02-07T11:34:51.196Z,3.56
2023-02-07T11:37:28.138Z,3.57
2023-02-07T11:40:20.717Z,3.59
2023-02-07T11:42:57.699Z,3.57
2023-02-07T11:45:29.895Z,3.58
2023-02-07T11:48:01.806Z,3.56
2023-02-07T11:50:39.330Z,3.60
2023-02-07T11:53:45.310Z,3.55
2023-02-07T11:56:24.121Z,3.53
2023-02-07T11:58:55.654Z,3.56
2023-02-07T12:02:30.745Z,3.58
2023-02-07T12:05:25.264Z,3.53
2023-02-07T12:08:02.372Z,3.43
2023-02-07T12:10:36.739Z,3.38
2023-02-07T12:13:11.791Z,3.33
2023-02-07T12:15:47.822Z,3.42
2023-02-07T12:18:26.360Z,3.48
2023-02-07T12:21:02.374Z,3.58
2023-02-07T12:23:46.352Z,3.66
2023-02-07T12:26:22.874Z,3.52
2023-02-07T12:29:13.059Z,3.31
2023-02-07T12:31:51.169Z,3.21
2023-02-07T12:34:27.650Z,3.08
2023-02-07T12:37:05.511Z,2.99
2023-02-07T12:39:43.338Z,2.92
2023-02-07T12:42:29.752Z,2.80
2023-02-07T12:45:02.517Z,2.67
2023-02-07T12:47:48.757Z,2.60
2023-02-07T12:50:39.112Z,2.58
2023-02-07T12:53:21.904Z,2.60
2023-02-07T12:56:03.126Z,2.54
2023-02-07T12:58:41.702Z,2.46
2023-02-07T13:01:19.750Z,2.36
2023-02-07T13:04:25.092Z,2.40
2023-02-07T13:07:08.276Z,2.44
2023-02-07T13:09:46.247Z,2.44
2023-02-07T13:12:26.645Z,2.45
2023-02-07T13:15:09.829Z,2.31
2023-02-07T13:17:50.544Z,2.25
2023-02-07T13:20:33.041Z,2.21
2023-02-07T13:23:10.525Z,2.14
2023-02-07T13:25:44.521Z,2.07
2023-02-07T13:28:22.854Z,2.09
2023-02-07T13:30:54.874Z,2.13
2023-02-07T13:33:38.431Z,2.17
2023-02-07T13:36:17.850Z,2.12
2023-02-07T13:39:18.026Z,2.12
2023-02-07T13:42:07.938Z,2.03
2023-02-07T13:44:45.800Z,2.09
2023-02-07T13:47:44.328Z,2.14
2023-02-07T13:50:33.698Z,2.01
2023-02-07T13:53:12.207Z,1.94
2023-02-07T13:55:44.413Z,1.95
2023-02-07T13:58:45.612Z,1.97
2023-02-07T14:01:20.372Z,1.92
2023-02-07T14:04:14.853Z,1.81
2023-02-07T14:06:56.286Z,1.81
2023-02-07T14:09:33.686Z,1.77
2023-02-07T14:12:07.287Z,1.80
2023-02-07T14:14:39.243Z,1.81
2023-02-07T14:17:13.855Z,1.79
2023-02-07T14:19:52.798Z,1.69
2023-02-07T14:22:26.619Z,1.69
2023-02-07T14:25:40.756Z,1.72
2023-02-07T14:28:32.463Z,1.75
2023-02-07T14:31:23.305Z,1.74
2023-02-07T14:34:14.777Z,1.75
2023-02-07T14:36:45.529Z,1.78
2023-02-07T14:39:33.355Z,1.81
2023-02-07T14:42:16.342Z,1.85
2023-02-07T14:44:48.434Z,1.78
2023-02-07T14:47:25.293Z,1.76
2023-02-07T14:49:58.498Z,1.75
2023-02-07T14:53:03.664Z,1.62
2023-02-07T14:55:45.730Z,1.56
2023-02-07T14:58:26.395Z,1.47
2023-02-07T15:01:00.629Z,1.43
2023-02-07T15:03:34.816Z,1.31
2023-02-07T15:06:23.814Z,1.23
2023-02-07T15:09:02.636Z,1.20
2023-02-07T15:11:32.311Z,1.14
2023-02-07T15:14:05.356Z,1.08
2023-02-07T15:16:36.927Z,1.05
2023-02-07T15:19:14.992Z,1.05
2023-02-07T15:21:47.962Z,1.03
2023-02-07T15:24:23.645Z,1.08
2023-02-07T15:26:58.511Z,1.12
2023-02-07T15:29:31.396Z,1.10
2023-02-07T15:32:11.731Z,1.15
2023-02-07T15:34:44.766Z,1.19
2023-02-07T15:37:19.529Z,1.15
2023-02-07T15:39:52.003Z,1.09
2023-02-07T15:42:23.429Z,1.09
2023-02-07T15:44:58.123Z,1.05
2023-02-07T15:47:36.783Z,1.05
2023-02-07T15:50:23.146Z,0.99
2023-02-07T15:52:56.499Z,0.97
2023-02-07T15:55:32.729Z,0.97
2023-02-07T15:58:04.654Z,0.94
2023-02-07T16:00:40.039Z,0.88
2023-02-07T16:03:18.556Z,0.84
2023-02-07T16:05:49.719Z,0.75
2023-02-07T16:08:30.616Z,0.69
2023-02-07T16:11:19.937Z,0.60
2023-02-07T16:13:54.088Z,0.55
2023-02-07T16:16:27.495Z,0.52
2023-02-07T16:19:08.350Z,0.52
2023-02-07T16:21:38.952Z,0.51
2023-02-07T16:24:14.917Z,0.53
2023-02-07T16:26:46.712Z,0.55
2023-02-07T16:29:22.653Z,0.54
2023-02-07T16:31:54.233Z,0.54
2023-02-07T16:34:25.451Z,0.55
2023-02-07T16:36:55.161Z,0.55
2023-02-07T16:39:25.876Z,0.55
2023-02-07T16:42:02.728Z,0.54
2023-02-07T16:44:35.602Z,0.52
2023-02-07T16:47:06.546Z,0.51
2023-02-07T16:49:39.768Z,0.50
2023-02-07T16:52:10.576Z,0.47
2023-02-07T16:54:41.564Z,0.43
2023-02-07T16:57:44.936Z,0.43
2023-02-07T17:00:16.777Z,0.38
2023-02-07T17:02:47.867Z,0.36
2023-02-07T17:05:20.046Z,0.36
2023-02-07T17:07:51.207Z,0.33
2023-02-07T17:10:32.775Z,0.29
2023-02-07T17:13:03.525Z,0.25
2023-02-07T17:15:34.782Z,0.23
2023-02-07T17:18:06.093Z,0.22
2023-02-07T17:20:36.905Z,0.21
2023-02-07T17:23:09.437Z,0.19
2023-02-07T17:25:46.779Z,0.16
2023-02-07T17:28:17.767Z,0.15
2023-02-07T17:30:48.473Z,0.15
2023-02-07T17:33:19.314Z,0.13
2023-02-07T17:35:50.126Z,0.09
2023-02-07T17:38:20.758Z,0.04
2023-02-07T17:40:51.398Z,-0.02
2023-02-07T17:43:23.287Z,-0.06
2023-02-07T17:45:56.882Z,-0.12
2023-02-07T17:48:27.716Z,-0.20
2023-02-07T17:50:58.669Z,-0.24
2023-02-07T17:53:29.818Z,-0.28
2023-02-07T17:56:00.581Z,-0.31
2023-02-07T17:58:31.552Z,-0.31
2023-02-07T18:01:02.690Z,-0.34
2023-02-07T18:03:33.615Z,-0.36
2023-02-07T18:06:11.264Z,-0.38
2023-02-07T18:08:42.578Z,-0.45
2023-02-07T18:11:13.955Z,-0.50
2023-02-07T18:13:47.190Z,-0.59
2023-02-07T18:16:20.048Z,-0.65
2023-02-07T18:18:52.154Z,-0.67
2023-02-07T18:21:26.256Z,-0.69
2023-02-07T18:23:57.115Z,-0.73
2023-02-07T18:26:28.082Z,-0.78
2023-02-07T18:28:57.454Z,-0.82
2023-02-07T18:31:28.673Z,-0.87
2023-02-07T18:33:59.522Z,-0.87
2023-02-07T18:36:30.388Z,-0.90
2023-02-07T18:39:01.302Z,-0.94
2023-02-07T18:41:32.107Z,-0.97
2023-02-07T18:44:02.691Z,-0.95
2023-02-07T18:46:33.411Z,-0.91
2023-02-07T18:49:04.398Z,-0.91
2023-02-07T18:51:55.228Z,-0.91
2023-02-07T18:54:31.848Z,-1.01
2023-02-07T18:57:02.640Z,-1.12
2023-02-07T18:59:37.092Z,-1.12
2023-02-07T19:02:08.247Z,-1.12
2023-02-07T19:04:37.299Z,-1.11
2023-02-07T19:07:07.923Z,-1.11
2023-02-07T19:09:38.593Z,-1.11
2023-02-07T19:12:33.240Z,-1.10
2023-02-07T19:15:24.800Z,-1.08
2023-02-07T19:17:51.133Z,-1.09
2023-02-07T19:20:21.760Z,-1.12
2023-02-07T19:22:52.389Z,-1.15
2023-02-07T19:25:23.009Z,-1.19
2023-02-07T19:27:53.949Z,-1.21
2023-02-07T19:30:25.014Z,-1.25
2023-02-07T19:32:55.647Z,-1.28
2023-02-07T19:35:26.227Z,-1.28
2023-02-07T19:38:01.102Z,-1.30
2023-02-07T19:40:31.873Z,-1.30
2023-02-07T19:43:23.250Z,-1.35
2023-02-07T19:45:54.548Z,-1.42
2023-02-07T19:48:23.766Z,-1.34
2023-02-07T19:51:01.316Z,-1.28
2023-02-07T19:53:32.944Z,-1.21
2023-02-07T19:56:05.701Z,-1.12
2023-02-07T19:58:40.006Z,-1.02
2023-02-07T20:01:11.963Z,-0.93
2023-02-07T20:03:43.764Z,-0.88
2023-02-07T20:06:15.420Z,-0.86
2023-02-07T20:08:46.082Z,-0.87
2023-02-07T20:11:18.933Z,-0.90
2023-02-07T20:13:52.838Z,-0.95
2023-02-07T20:16:25.741Z,-1.04
2023-02-07T20:18:56.986Z,-1.08
2023-02-07T20:21:27.488Z,-1.12
2023-02-07T20:23:59.833Z,-1.17
2023-02-07T20:26:32.984Z,-1.24
2023-02-07T20:29:07.362Z,-1.29
2023-02-07T20:31:40.667Z,-1.35
2023-02-07T20:34:11.820Z,-1.48
2023-02-07T20:36:41.528Z,-1.58
2023-02-07T20:39:14.993Z,-1.63
2023-02-07T20:41:46.247Z,-1.64
2023-02-07T20:44:22.072Z,-1.60
2023-02-07T20:46:53.400Z,-1.58
2023-02-07T20:49:28.678Z,-1.59
2023-02-07T20:52:00.390Z,-1.59
2023-02-07T20:54:32.102Z,-1.54
2023-02-07T20:57:02.884Z,-1.53
2023-02-07T20:59:52.505Z,-1.51
2023-02-07T21:02:23.191Z,-1.48
2023-02-07T21:04:53.910Z,-1.45
2023-02-07T21:07:24.871Z,-1.41
2023-02-07T21:09:57.670Z,-1.39
2023-02-07T21:12:30.676Z,-1.33
2023-02-07T21:15:02.604Z,-1.29
2023-02-07T21:17:33.274Z,-1.25
2023-02-07T21:23:02.978Z,-1.18
2023-02-07T21:25:33.740Z,-1.16
2023-02-07T21:28:04.480Z,-1.14
2023-02-07T21:30:36.059Z,-1.09
2023-02-07T21:33:07.621Z,-1.03
2023-02-07T21:35:48.235Z,-0.97
2023-02-07T21:38:18.974Z,-0.91
2023-02-07T21:40:49.778Z,-0.86
2023-02-07T21:43:20.448Z,-0.85
2023-02-07T21:45:51.178Z,-0.83
2023-02-07T21:48:21.876Z,-0.82
2023-02-07T21:50:52.782Z,-0.81
2023-02-07T21:53:23.376Z,-0.79
2023-02-07T21:55:54.062Z,-0.75
2023-02-07T21:58:26.688Z,-0.74
2023-02-07T22:01:03.953Z,-0.74
2023-02-07T22:03:34.663Z,-0.73
2023-02-07T22:06:06.369Z,-0.71
2023-02-07T22:08:38.467Z,-0.70
2023-02-07T22:11:11.063Z,-0.68
2023-02-07T22:13:45.881Z,-0.67
2023-02-07T22:16:17.525Z,-0.67
2023-02-07T22:18:48.458Z,-0.65
2023-02-07T22:21:23.209Z,-0.65
2023-02-07T22:23:55.247Z,-0.65
2023-02-07T22:26:27.208Z,-0.76
2023-02-07T22:28:58.500Z,-0.88
2023-02-07T22:31:31.333Z,-1.04
2023-02-07T22:34:04.227Z,-1.19
2023-02-07T22:36:37.598Z,-1.31
2023-02-07T22:39:09.304Z,-1.44
2023-02-07T22:41:42.018Z,-1.55
2023-02-07T22:44:12.858Z,-1.61
2023-02-07T22:46:43.577Z,-1.63
2023-02-07T22:49:14.310Z,-1.62
2023-02-07T22:51:45.009Z,-1.66
2023-02-07T22:54:17.604Z,-1.70
2023-02-07T22:56:48.580Z,-1.67
2023-02-07T22:59:19.230Z,-1.60
2023-02-07T23:01:50.613Z,-1.51
2023-02-07T23:04:21.362Z,-1.44
2023-02-07T23:06:52.965Z,-1.39
2023-02-07T23:09:23.703Z,-1.32
2023-02-07T23:11:54.447Z,-1.21
2023-02-07T23:14:25.374Z,-1.08
2023-02-07T23:16:54.637Z,-0.96
2023-02-07T23:19:25.626Z,-0.86
2023-02-07T23:22:01.022Z,-0.77
2023-02-07T23:24:31.678Z,-0.71
2023-02-07T23:27:02.683Z,-0.67
2023-02-07T23:29:33.900Z,-0.63
2023-02-07T23:32:03.000Z,-0.56
2023-02-07T23:34:34.139Z,-0.52
2023-02-07T23:37:03.249Z,-0.48
2023-02-07T23:39:33.860Z,-0.45
2023-02-07T23:42:04.638Z,-0.42
2023-02-07T23:44:35.340Z,-0.47
2023-02-07T23:47:05.156Z,-0.46
2023-02-07T23:49:36.569Z,-0.45
2023-02-07T23:52:07.334Z,-0.45
2023-02-07T23:54:38.151Z,-0.46
2023-02-07T23:57:09.159Z,-0.51
2023-02-07T23:59:42.734Z,-0.55
